sensor_id;sensor_type;location;lat;lon;timestamp;P1;durP1;ratioP1;P2;durP2;ratioP2
62056;SDS011;48016;50.284;18.860;2022-10-17T00:01:23;33.30;;;20.90;;
62056;SDS011;48016;50.284;18.860;2022-10-17T00:03:50;34.70;;;21.60;;
62056;SDS011;48016;50.284;18.860;2022-10-17T00:06:16;36.90;;;22.20;;
62056;SDS011;48016;50.284;18.860;2022-10-17T00:08:43;38.40;;;22.50;;
62056;SDS011;48016;50.284;18.860;2022-10-17T00:11:14;36.10;;;21.40;;
62056;SDS011;48016;50.284;18.860;2022-10-17T00:13:47;33.60;;;20.10;;
62056;SDS011;48016;50.284;18.860;2022-10-17T00:16:21;35.50;;;23.30;;
62056;SDS011;48016;50.284;18.860;2022-10-17T00:18:50;39.60;;;23.90;;
62056;SDS011;48016;50.284;18.860;2022-10-17T00:21:18;37.30;;;22.80;;
62056;SDS011;48016;50.284;18.860;2022-10-17T00:23:45;34.20;;;20.90;;
62056;SDS011;48016;50.284;18.860;2022-10-17T00:26:13;35.40;;;21.50;;
62056;SDS011;48016;50.284;18.860;2022-10-17T00:28:40;33.80;;;19.80;;
62056;SDS011;48016;50.284;18.860;2022-10-17T00:31:07;32.30;;;20.50;;
62056;SDS011;48016;50.284;18.860;2022-10-17T00:33:34;29.80;;;17.90;;
62056;SDS011;48016;50.284;18.860;2022-10-17T00:36:01;30.80;;;18.10;;
62056;SDS011;48016;50.284;18.860;2022-10-17T00:38:35;35.60;;;20.20;;
62056;SDS011;48016;50.284;18.860;2022-10-17T00:41:02;33.70;;;20.40;;
62056;SDS011;48016;50.284;18.860;2022-10-17T00:43:46;30.40;;;20.20;;
62056;SDS011;48016;50.284;18.860;2022-10-17T00:46:14;31.90;;;19.70;;
62056;SDS011;48016;50.284;18.860;2022-10-17T00:48:41;29.60;;;19.00;;
62056;SDS011;48016;50.284;18.860;2022-10-17T00:51:08;27.30;;;18.60;;
62056;SDS011;48016;50.284;18.860;2022-10-17T00:53:36;27.50;;;18.90;;
62056;SDS011;48016;50.284;18.860;2022-10-17T00:56:04;27.30;;;17.80;;
62056;SDS011;48016;50.284;18.860;2022-10-17T00:58:31;28.10;;;17.90;;
62056;SDS011;48016;50.284;18.860;2022-10-17T01:00:57;25.80;;;17.60;;
62056;SDS011;48016;50.284;18.860;2022-10-17T01:03:24;31.80;;;19.00;;
62056;SDS011;48016;50.284;18.860;2022-10-17T01:05:50;28.30;;;18.50;;
62056;SDS011;48016;50.284;18.860;2022-10-17T01:08:17;26.50;;;18.20;;
62056;SDS011;48016;50.284;18.860;2022-10-17T01:10:48;28.80;;;18.80;;
62056;SDS011;48016;50.284;18.860;2022-10-17T01:18:43;25.50;;;17.10;;
62056;SDS011;48016;50.284;18.860;2022-10-17T01:21:32;28.20;;;17.40;;
62056;SDS011;48016;50.284;18.860;2022-10-17T01:24:14;26.30;;;18.40;;
62056;SDS011;48016;50.284;18.860;2022-10-17T01:26:47;28.40;;;18.20;;
62056;SDS011;48016;50.284;18.860;2022-10-17T01:29:31;27.00;;;18.50;;
62056;SDS011;48016;50.284;18.860;2022-10-17T01:32:18;28.50;;;17.60;;
62056;SDS011;48016;50.284;18.860;2022-10-17T01:35:01;32.00;;;19.20;;
62056;SDS011;48016;50.284;18.860;2022-10-17T01:37:47;28.60;;;18.40;;
62056;SDS011;48016;50.284;18.860;2022-10-17T01:40:27;27.20;;;17.70;;
62056;SDS011;48016;50.284;18.860;2022-10-17T01:46:31;24.40;;;16.40;;
62056;SDS011;48016;50.284;18.860;2022-10-17T01:48:46;26.40;;;17.40;;
62056;SDS011;48016;50.284;18.860;2022-10-17T01:51:23;28.30;;;17.10;;
62056;SDS011;48016;50.284;18.860;2022-10-17T01:54:01;27.10;;;17.20;;
62056;SDS011;48016;50.284;18.860;2022-10-17T01:56:32;28.70;;;17.20;;
62056;SDS011;48016;50.284;18.860;2022-10-17T01:59:06;25.90;;;16.60;;
62056;SDS011;48016;50.284;18.860;2022-10-17T02:01:38;28.50;;;16.20;;
62056;SDS011;48016;50.284;18.860;2022-10-17T02:04:07;26.60;;;16.80;;
62056;SDS011;48016;50.284;18.860;2022-10-17T02:06:36;24.20;;;16.90;;
62056;SDS011;48016;50.284;18.860;2022-10-17T02:09:22;26.00;;;17.40;;
62056;SDS011;48016;50.284;18.860;2022-10-17T02:14:38;25.10;;;17.30;;
62056;SDS011;48016;50.284;18.860;2022-10-17T02:17:29;27.90;;;18.40;;
62056;SDS011;48016;50.284;18.860;2022-10-17T02:20:23;26.30;;;17.20;;
62056;SDS011;48016;50.284;18.860;2022-10-17T02:23:11;25.50;;;17.60;;
62056;SDS011;48016;50.284;18.860;2022-10-17T02:31:32;30.20;;;18.80;;
62056;SDS011;48016;50.284;18.860;2022-10-17T02:34:08;25.40;;;16.70;;
62056;SDS011;48016;50.284;18.860;2022-10-17T02:36:44;27.90;;;17.90;;
62056;SDS011;48016;50.284;18.860;2022-10-17T02:39:14;27.50;;;17.90;;
62056;SDS011;48016;50.284;18.860;2022-10-17T02:41:42;28.00;;;18.40;;
62056;SDS011;48016;50.284;18.860;2022-10-17T02:44:10;27.90;;;18.70;;
62056;SDS011;48016;50.284;18.860;2022-10-17T02:46:37;31.90;;;21.10;;
62056;SDS011;48016;50.284;18.860;2022-10-17T02:49:08;31.00;;;19.30;;
62056;SDS011;48016;50.284;18.860;2022-10-17T02:54:23;30.00;;;18.90;;
62056;SDS011;48016;50.284;18.860;2022-10-17T02:56:54;29.40;;;18.50;;
62056;SDS011;48016;50.284;18.860;2022-10-17T02:59:24;31.30;;;18.70;;
62056;SDS011;48016;50.284;18.860;2022-10-17T03:01:54;31.00;;;18.90;;
62056;SDS011;48016;50.284;18.860;2022-10-17T03:04:21;28.00;;;18.60;;
62056;SDS011;48016;50.284;18.860;2022-10-17T03:06:48;27.40;;;17.50;;
62056;SDS011;48016;50.284;18.860;2022-10-17T03:09:14;28.20;;;17.70;;
62056;SDS011;48016;50.284;18.860;2022-10-17T03:11:41;26.00;;;17.30;;
62056;SDS011;48016;50.284;18.860;2022-10-17T03:14:08;22.50;;;15.20;;
62056;SDS011;48016;50.284;18.860;2022-10-17T03:16:34;23.50;;;15.50;;
62056;SDS011;48016;50.284;18.860;2022-10-17T03:19:01;27.40;;;17.60;;
62056;SDS011;48016;50.284;18.860;2022-10-17T03:21:28;25.50;;;17.40;;
62056;SDS011;48016;50.284;18.860;2022-10-17T03:23:54;26.50;;;16.40;;
62056;SDS011;48016;50.284;18.860;2022-10-17T03:26:21;25.00;;;16.20;;
62056;SDS011;48016;50.284;18.860;2022-10-17T03:28:47;21.90;;;15.60;;
62056;SDS011;48016;50.284;18.860;2022-10-17T03:31:15;24.50;;;16.00;;
62056;SDS011;48016;50.284;18.860;2022-10-17T03:33:42;24.20;;;17.30;;
62056;SDS011;48016;50.284;18.860;2022-10-17T03:36:09;20.80;;;15.00;;
62056;SDS011;48016;50.284;18.860;2022-10-17T03:38:38;23.40;;;16.60;;
62056;SDS011;48016;50.284;18.860;2022-10-17T03:41:05;27.30;;;16.80;;
62056;SDS011;48016;50.284;18.860;2022-10-17T03:43:32;23.30;;;17.30;;
62056;SDS011;48016;50.284;18.860;2022-10-17T03:45:59;25.60;;;18.20;;
62056;SDS011;48016;50.284;18.860;2022-10-17T03:51:00;24.70;;;17.30;;
62056;SDS011;48016;50.284;18.860;2022-10-17T03:53:28;29.80;;;19.00;;
62056;SDS011;48016;50.284;18.860;2022-10-17T03:55:55;24.20;;;16.70;;
62056;SDS011;48016;50.284;18.860;2022-10-17T03:58:22;24.80;;;16.80;;
62056;SDS011;48016;50.284;18.860;2022-10-17T04:00:49;23.50;;;16.30;;
62056;SDS011;48016;50.284;18.860;2022-10-17T04:03:15;27.00;;;18.00;;
62056;SDS011;48016;50.284;18.860;2022-10-17T04:05:42;29.90;;;19.60;;
62056;SDS011;48016;50.284;18.860;2022-10-17T04:08:08;29.20;;;19.90;;
62056;SDS011;48016;50.284;18.860;2022-10-17T04:10:34;29.40;;;19.50;;
62056;SDS011;48016;50.284;18.860;2022-10-17T04:13:01;32.00;;;19.30;;
62056;SDS011;48016;50.284;18.860;2022-10-17T04:15:28;30.70;;;18.80;;
62056;SDS011;48016;50.284;18.860;2022-10-17T04:17:54;27.20;;;18.00;;
62056;SDS011;48016;50.284;18.860;2022-10-17T04:20:21;28.10;;;19.80;;
62056;SDS011;48016;50.284;18.860;2022-10-17T04:22:47;30.40;;;19.60;;
62056;SDS011;48016;50.284;18.860;2022-10-17T04:25:13;34.10;;;20.10;;
62056;SDS011;48016;50.284;18.860;2022-10-17T04:27:40;30.10;;;19.70;;
62056;SDS011;48016;50.284;18.860;2022-10-17T04:30:07;32.40;;;19.90;;
62056;SDS011;48016;50.284;18.860;2022-10-17T04:32:36;33.20;;;20.80;;
62056;SDS011;48016;50.284;18.860;2022-10-17T04:35:04;37.30;;;20.70;;
62056;SDS011;48016;50.284;18.860;2022-10-17T04:37:31;30.90;;;19.10;;
62056;SDS011;48016;50.284;18.860;2022-10-17T04:39:57;30.10;;;19.90;;
62056;SDS011;48016;50.284;18.860;2022-10-17T04:42:24;36.00;;;20.50;;
62056;SDS011;48016;50.284;18.860;2022-10-17T04:44:50;33.10;;;21.00;;
62056;SDS011;48016;50.284;18.860;2022-10-17T04:47:17;29.50;;;19.90;;
62056;SDS011;48016;50.284;18.860;2022-10-17T04:49:43;34.30;;;21.10;;
62056;SDS011;48016;50.284;18.860;2022-10-17T04:52:10;35.50;;;20.90;;
62056;SDS011;48016;50.284;18.860;2022-10-17T04:54:36;33.10;;;20.90;;
62056;SDS011;48016;50.284;18.860;2022-10-17T04:57:03;32.30;;;21.70;;
62056;SDS011;48016;50.284;18.860;2022-10-17T04:59:29;30.70;;;19.20;;
62056;SDS011;48016;50.284;18.860;2022-10-17T05:01:56;30.10;;;18.90;;
62056;SDS011;48016;50.284;18.860;2022-10-17T05:04:22;36.30;;;21.50;;
62056;SDS011;48016;50.284;18.860;2022-10-17T05:09:16;33.00;;;21.20;;
62056;SDS011;48016;50.284;18.860;2022-10-17T05:11:43;29.70;;;20.70;;
62056;SDS011;48016;50.284;18.860;2022-10-17T05:14:09;31.90;;;21.40;;
62056;SDS011;48016;50.284;18.860;2022-10-17T05:16:36;32.00;;;20.90;;
62056;SDS011;48016;50.284;18.860;2022-10-17T05:19:02;28.50;;;19.90;;
62056;SDS011;48016;50.284;18.860;2022-10-17T05:21:29;31.50;;;21.40;;
62056;SDS011;48016;50.284;18.860;2022-10-17T05:23:56;34.10;;;20.80;;
62056;SDS011;48016;50.284;18.860;2022-10-17T05:26:23;31.90;;;21.30;;
62056;SDS011;48016;50.284;18.860;2022-10-17T05:31:17;31.50;;;20.90;;
62056;SDS011;48016;50.284;18.860;2022-10-17T05:33:44;32.20;;;20.60;;
62056;SDS011;48016;50.284;18.860;2022-10-17T05:36:11;31.00;;;20.90;;
62056;SDS011;48016;50.284;18.860;2022-10-17T05:38:37;31.50;;;20.80;;
62056;SDS011;48016;50.284;18.860;2022-10-17T05:41:04;32.30;;;20.70;;
62056;SDS011;48016;50.284;18.860;2022-10-17T05:43:31;29.90;;;21.30;;
62056;SDS011;48016;50.284;18.860;2022-10-17T05:46:01;31.20;;;21.30;;
62056;SDS011;48016;50.284;18.860;2022-10-17T05:48:29;34.10;;;22.40;;
62056;SDS011;48016;50.284;18.860;2022-10-17T05:50:56;30.80;;;20.60;;
62056;SDS011;48016;50.284;18.860;2022-10-17T05:53:25;37.60;;;22.50;;
62056;SDS011;48016;50.284;18.860;2022-10-17T05:55:58;35.30;;;22.10;;
62056;SDS011;48016;50.284;18.860;2022-10-17T05:58:26;32.00;;;21.00;;
62056;SDS011;48016;50.284;18.860;2022-10-17T06:00:57;37.40;;;22.50;;
62056;SDS011;48016;50.284;18.860;2022-10-17T06:03:26;41.90;;;23.90;;
62056;SDS011;48016;50.284;18.860;2022-10-17T06:05:53;35.30;;;21.50;;
62056;SDS011;48016;50.284;18.860;2022-10-17T06:08:20;37.70;;;23.20;;
62056;SDS011;48016;50.284;18.860;2022-10-17T06:10:47;35.90;;;24.50;;
62056;SDS011;48016;50.284;18.860;2022-10-17T06:13:15;35.30;;;24.10;;
62056;SDS011;48016;50.284;18.860;2022-10-17T06:15:42;38.80;;;24.30;;
62056;SDS011;48016;50.284;18.860;2022-10-17T06:18:09;41.00;;;27.00;;
62056;SDS011;48016;50.284;18.860;2022-10-17T06:23:03;40.20;;;26.90;;
62056;SDS011;48016;50.284;18.860;2022-10-17T06:25:31;37.90;;;24.80;;
62056;SDS011;48016;50.284;18.860;2022-10-17T06:27:57;40.70;;;25.30;;
62056;SDS011;48016;50.284;18.860;2022-10-17T06:30:24;38.50;;;23.70;;
62056;SDS011;48016;50.284;18.860;2022-10-17T06:32:51;36.10;;;22.50;;
62056;SDS011;48016;50.284;18.860;2022-10-17T06:35:19;32.80;;;22.10;;
62056;SDS011;48016;50.284;18.860;2022-10-17T06:37:45;32.80;;;22.50;;
62056;SDS011;48016;50.284;18.860;2022-10-17T06:40:12;32.40;;;21.40;;
62056;SDS011;48016;50.284;18.860;2022-10-17T06:42:41;32.80;;;21.40;;
62056;SDS011;48016;50.284;18.860;2022-10-17T06:45:08;37.80;;;23.50;;
62056;SDS011;48016;50.284;18.860;2022-10-17T06:47:35;35.30;;;21.40;;
62056;SDS011;48016;50.284;18.860;2022-10-17T06:50:02;35.70;;;21.40;;
62056;SDS011;48016;50.284;18.860;2022-10-17T06:52:29;37.00;;;22.70;;
62056;SDS011;48016;50.284;18.860;2022-10-17T06:54:55;32.70;;;21.80;;
62056;SDS011;48016;50.284;18.860;2022-10-17T06:57:22;35.10;;;21.50;;
62056;SDS011;48016;50.284;18.860;2022-10-17T06:59:48;33.50;;;22.80;;
62056;SDS011;48016;50.284;18.860;2022-10-17T07:02:15;35.80;;;25.30;;
62056;SDS011;48016;50.284;18.860;2022-10-17T07:04:41;33.80;;;23.10;;
62056;SDS011;48016;50.284;18.860;2022-10-17T07:07:10;35.30;;;24.50;;
62056;SDS011;48016;50.284;18.860;2022-10-17T07:09:37;33.80;;;21.70;;
62056;SDS011;48016;50.284;18.860;2022-10-17T07:12:03;28.60;;;21.30;;
62056;SDS011;48016;50.284;18.860;2022-10-17T07:14:33;27.60;;;21.00;;
62056;SDS011;48016;50.284;18.860;2022-10-17T07:17:00;29.70;;;20.10;;
62056;SDS011;48016;50.284;18.860;2022-10-17T07:19:27;28.10;;;19.80;;
62056;SDS011;48016;50.284;18.860;2022-10-17T07:21:54;28.50;;;19.20;;
62056;SDS011;48016;50.284;18.860;2022-10-17T07:24:20;29.40;;;19.30;;
62056;SDS011;48016;50.284;18.860;2022-10-17T07:26:47;26.50;;;18.80;;
62056;SDS011;48016;50.284;18.860;2022-10-17T07:29:13;25.50;;;17.20;;
62056;SDS011;48016;50.284;18.860;2022-10-17T07:31:40;29.10;;;20.20;;
62056;SDS011;48016;50.284;18.860;2022-10-17T07:34:06;25.90;;;19.10;;
62056;SDS011;48016;50.284;18.860;2022-10-17T07:36:33;20.50;;;16.90;;
62056;SDS011;48016;50.284;18.860;2022-10-17T07:38:59;25.10;;;17.30;;
62056;SDS011;48016;50.284;18.860;2022-10-17T07:41:26;22.90;;;16.40;;
62056;SDS011;48016;50.284;18.860;2022-10-17T07:43:52;20.60;;;15.40;;
62056;SDS011;48016;50.284;18.860;2022-10-17T07:46:19;27.00;;;16.70;;
62056;SDS011;48016;50.284;18.860;2022-10-17T07:48:45;20.90;;;14.60;;
62056;SDS011;48016;50.284;18.860;2022-10-17T07:51:12;23.50;;;16.90;;
62056;SDS011;48016;50.284;18.860;2022-10-17T07:53:39;23.10;;;16.50;;
62056;SDS011;48016;50.284;18.860;2022-10-17T07:56:06;23.00;;;16.30;;
62056;SDS011;48016;50.284;18.860;2022-10-17T07:58:34;22.40;;;16.40;;
62056;SDS011;48016;50.284;18.860;2022-10-17T08:01:01;21.70;;;16.20;;
62056;SDS011;48016;50.284;18.860;2022-10-17T08:03:33;22.50;;;16.40;;
62056;SDS011;48016;50.284;18.860;2022-10-17T08:06:00;22.50;;;16.30;;
62056;SDS011;48016;50.284;18.860;2022-10-17T08:08:28;24.90;;;16.40;;
62056;SDS011;48016;50.284;18.860;2022-10-17T08:10:55;22.20;;;15.90;;
62056;SDS011;48016;50.284;18.860;2022-10-17T08:13:28;19.30;;;14.60;;
62056;SDS011;48016;50.284;18.860;2022-10-17T08:15:57;25.00;;;14.90;;
62056;SDS011;48016;50.284;18.860;2022-10-17T08:18:27;19.40;;;14.90;;
62056;SDS011;48016;50.284;18.860;2022-10-17T08:20:54;22.60;;;14.60;;
62056;SDS011;48016;50.284;18.860;2022-10-17T08:23:20;20.50;;;14.10;;
62056;SDS011;48016;50.284;18.860;2022-10-17T08:25:47;18.40;;;13.60;;
62056;SDS011;48016;50.284;18.860;2022-10-17T08:28:13;19.60;;;13.50;;
62056;SDS011;48016;50.284;18.860;2022-10-17T08:30:40;22.50;;;13.90;;
62056;SDS011;48016;50.284;18.860;2022-10-17T08:33:06;21.90;;;14.30;;
62056;SDS011;48016;50.284;18.860;2022-10-17T08:35:33;19.20;;;12.70;;
62056;SDS011;48016;50.284;18.860;2022-10-17T08:37:59;24.70;;;14.00;;
62056;SDS011;48016;50.284;18.860;2022-10-17T08:40:27;17.60;;;13.40;;
62056;SDS011;48016;50.284;18.860;2022-10-17T08:48:26;19.90;;;12.90;;
62056;SDS011;48016;50.284;18.860;2022-10-17T08:50:56;17.40;;;12.60;;
62056;SDS011;48016;50.284;18.860;2022-10-17T08:53:33;19.50;;;13.40;;
62056;SDS011;48016;50.284;18.860;2022-10-17T08:56:12;18.00;;;14.30;;
62056;SDS011;48016;50.284;18.860;2022-10-17T08:58:43;22.90;;;13.80;;
62056;SDS011;48016;50.284;18.860;2022-10-17T09:03:45;19.40;;;13.10;;
62056;SDS011;48016;50.284;18.860;2022-10-17T09:06:20;16.20;;;12.90;;
62056;SDS011;48016;50.284;18.860;2022-10-17T09:14:49;21.10;;;12.90;;
62056;SDS011;48016;50.284;18.860;2022-10-17T09:17:33;16.40;;;12.10;;
62056;SDS011;48016;50.284;18.860;2022-10-17T09:20:11;19.40;;;11.70;;
62056;SDS011;48016;50.284;18.860;2022-10-17T09:22:55;17.50;;;11.90;;
62056;SDS011;48016;50.284;18.860;2022-10-17T09:25:25;17.90;;;11.90;;
62056;SDS011;48016;50.284;18.860;2022-10-17T09:27:55;18.40;;;12.90;;
62056;SDS011;48016;50.284;18.860;2022-10-17T09:30:34;18.50;;;12.80;;
62056;SDS011;48016;50.284;18.860;2022-10-17T09:33:12;17.20;;;11.30;;
62056;SDS011;48016;50.284;18.860;2022-10-17T09:35:39;17.30;;;11.90;;
62056;SDS011;48016;50.284;18.860;2022-10-17T09:38:17;18.30;;;11.90;;
62056;SDS011;48016;50.284;18.860;2022-10-17T09:40:56;16.60;;;11.50;;
62056;SDS011;48016;50.284;18.860;2022-10-17T09:43:25;14.40;;;11.20;;
62056;SDS011;48016;50.284;18.860;2022-10-17T09:48:45;16.10;;;11.10;;
62056;SDS011;48016;50.284;18.860;2022-10-17T09:51:16;13.40;;;9.50;;
62056;SDS011;48016;50.284;18.860;2022-10-17T09:53:44;15.50;;;10.80;;
62056;SDS011;48016;50.284;18.860;2022-10-17T09:56:17;16.80;;;12.20;;
62056;SDS011;48016;50.284;18.860;2022-10-17T09:58:46;15.20;;;10.40;;
62056;SDS011;48016;50.284;18.860;2022-10-17T10:03:48;14.70;;;9.90;;
62056;SDS011;48016;50.284;18.860;2022-10-17T10:06:36;12.80;;;10.00;;
62056;SDS011;48016;50.284;18.860;2022-10-17T10:09:04;15.00;;;10.80;;
62056;SDS011;48016;50.284;18.860;2022-10-17T10:11:51;14.80;;;10.50;;
62056;SDS011;48016;50.284;18.860;2022-10-17T10:16:48;12.40;;;9.50;;
62056;SDS011;48016;50.284;18.860;2022-10-17T10:19:29;11.80;;;10.00;;
62056;SDS011;48016;50.284;18.860;2022-10-17T10:22:02;14.60;;;10.00;;
62056;SDS011;48016;50.284;18.860;2022-10-17T10:24:30;15.10;;;10.90;;
62056;SDS011;48016;50.284;18.860;2022-10-17T10:26:58;14.40;;;9.70;;
62056;SDS011;48016;50.284;18.860;2022-10-17T10:29:36;15.50;;;10.80;;
62056;SDS011;48016;50.284;18.860;2022-10-17T10:32:25;14.10;;;9.90;;
62056;SDS011;48016;50.284;18.860;2022-10-17T10:35:00;15.80;;;9.90;;
62056;SDS011;48016;50.284;18.860;2022-10-17T10:37:36;13.50;;;10.50;;
62056;SDS011;48016;50.284;18.860;2022-10-17T10:40:15;15.20;;;10.60;;
62056;SDS011;48016;50.284;18.860;2022-10-17T10:42:51;15.10;;;9.90;;
62056;SDS011;48016;50.284;18.860;2022-10-17T10:45:21;17.20;;;9.80;;
62056;SDS011;48016;50.284;18.860;2022-10-17T10:47:51;16.50;;;10.30;;
62056;SDS011;48016;50.284;18.860;2022-10-17T10:51:07;14.90;;;11.60;;
62056;SDS011;48016;50.284;18.860;2022-10-17T10:56:09;14.50;;;9.20;;
62056;SDS011;48016;50.284;18.860;2022-10-17T10:59:02;14.60;;;10.20;;
62056;SDS011;48016;50.284;18.860;2022-10-17T11:01:42;14.10;;;9.40;;
62056;SDS011;48016;50.284;18.860;2022-10-17T11:04:20;13.10;;;10.10;;
62056;SDS011;48016;50.284;18.860;2022-10-17T11:06:59;14.80;;;9.60;;
62056;SDS011;48016;50.284;18.860;2022-10-17T11:09:39;14.30;;;10.30;;
62056;SDS011;48016;50.284;18.860;2022-10-17T11:12:12;13.40;;;10.50;;
62056;SDS011;48016;50.284;18.860;2022-10-17T11:14:48;17.10;;;10.70;;
62056;SDS011;48016;50.284;18.860;2022-10-17T11:22:47;11.60;;;9.20;;
62056;SDS011;48016;50.284;18.860;2022-10-17T11:25:27;15.10;;;9.60;;
62056;SDS011;48016;50.284;18.860;2022-10-17T11:28:02;13.10;;;9.40;;
62056;SDS011;48016;50.284;18.860;2022-10-17T11:33:30;13.10;;;9.20;;
62056;SDS011;48016;50.284;18.860;2022-10-17T11:36:20;14.90;;;8.80;;
62056;SDS011;48016;50.284;18.860;2022-10-17T11:39:01;12.30;;;8.60;;
62056;SDS011;48016;50.284;18.860;2022-10-17T11:44:36;14.70;;;9.60;;
62056;SDS011;48016;50.284;18.860;2022-10-17T11:50:39;12.80;;;9.00;;
62056;SDS011;48016;50.284;18.860;2022-10-17T11:53:00;12.90;;;8.90;;
62056;SDS011;48016;50.284;18.860;2022-10-17T11:55:34;11.30;;;7.90;;
62056;SDS011;48016;50.284;18.860;2022-10-17T12:04:05;13.40;;;8.80;;
62056;SDS011;48016;50.284;18.860;2022-10-17T12:12:33;15.80;;;8.90;;
62056;SDS011;48016;50.284;18.860;2022-10-17T12:17:45;12.80;;;8.70;;
62056;SDS011;48016;50.284;18.860;2022-10-17T12:22:56;12.10;;;8.20;;
62056;SDS011;48016;50.284;18.860;2022-10-17T12:25:53;11.80;;;7.90;;
62056;SDS011;48016;50.284;18.860;2022-10-17T12:28:25;13.00;;;9.20;;
62056;SDS011;48016;50.284;18.860;2022-10-17T12:38:43;12.10;;;9.20;;
62056;SDS011;48016;50.284;18.860;2022-10-17T12:41:13;12.20;;;9.20;;
62056;SDS011;48016;50.284;18.860;2022-10-17T12:46:12;10.10;;;7.90;;
62056;SDS011;48016;50.284;18.860;2022-10-17T12:52:12;10.80;;;8.10;;
62056;SDS011;48016;50.284;18.860;2022-10-17T12:54:40;12.20;;;8.00;;
62056;SDS011;48016;50.284;18.860;2022-10-17T12:57:26;13.80;;;9.40;;
62056;SDS011;48016;50.284;18.860;2022-10-17T13:00:00;14.10;;;9.20;;
62056;SDS011;48016;50.284;18.860;2022-10-17T13:02:29;14.60;;;9.80;;
62056;SDS011;48016;50.284;18.860;2022-10-17T13:07:31;14.10;;;8.60;;
62056;SDS011;48016;50.284;18.860;2022-10-17T13:09:59;11.80;;;8.10;;
62056;SDS011;48016;50.284;18.860;2022-10-17T13:12:31;12.00;;;8.60;;
62056;SDS011;48016;50.284;18.860;2022-10-17T13:15:02;10.90;;;8.40;;
62056;SDS011;48016;50.284;18.860;2022-10-17T13:17:31;11.60;;;8.00;;
62056;SDS011;48016;50.284;18.860;2022-10-17T13:20:00;13.40;;;8.40;;
62056;SDS011;48016;50.284;18.860;2022-10-17T13:22:28;13.10;;;8.60;;
62056;SDS011;48016;50.284;18.860;2022-10-17T13:25:13;13.60;;;8.60;;
62056;SDS011;48016;50.284;18.860;2022-10-17T13:27:41;13.80;;;9.20;;
62056;SDS011;48016;50.284;18.860;2022-10-17T13:33:18;12.60;;;9.10;;
62056;SDS011;48016;50.284;18.860;2022-10-17T13:35:56;14.70;;;7.70;;
62056;SDS011;48016;50.284;18.860;2022-10-17T13:38:23;12.60;;;7.80;;
62056;SDS011;48016;50.284;18.860;2022-10-17T13:40:53;11.80;;;8.40;;
62056;SDS011;48016;50.284;18.860;2022-10-17T13:43:20;12.20;;;8.70;;
62056;SDS011;48016;50.284;18.860;2022-10-17T13:45:51;12.50;;;9.00;;
62056;SDS011;48016;50.284;18.860;2022-10-17T13:48:24;12.30;;;8.40;;
62056;SDS011;48016;50.284;18.860;2022-10-17T13:50:54;14.10;;;8.50;;
62056;SDS011;48016;50.284;18.860;2022-10-17T13:56:02;12.50;;;9.10;;
62056;SDS011;48016;50.284;18.860;2022-10-17T13:58:38;13.60;;;9.00;;
62056;SDS011;48016;50.284;18.860;2022-10-17T14:01:07;12.60;;;8.60;;
62056;SDS011;48016;50.284;18.860;2022-10-17T14:03:34;12.40;;;8.40;;
62056;SDS011;48016;50.284;18.860;2022-10-17T14:09:05;12.80;;;8.70;;
62056;SDS011;48016;50.284;18.860;2022-10-17T14:11:42;13.80;;;8.80;;
62056;SDS011;48016;50.284;18.860;2022-10-17T14:14:17;12.50;;;8.80;;
62056;SDS011;48016;50.284;18.860;2022-10-17T14:16:47;14.20;;;8.50;;
62056;SDS011;48016;50.284;18.860;2022-10-17T14:22:25;13.50;;;8.10;;
62056;SDS011;48016;50.284;18.860;2022-10-17T14:24:49;11.40;;;8.60;;
62056;SDS011;48016;50.284;18.860;2022-10-17T14:29:53;11.00;;;8.40;;
62056;SDS011;48016;50.284;18.860;2022-10-17T14:32:22;15.30;;;8.90;;
62056;SDS011;48016;50.284;18.860;2022-10-17T14:34:53;12.80;;;7.90;;
62056;SDS011;48016;50.284;18.860;2022-10-17T14:37:34;13.10;;;9.50;;
62056;SDS011;48016;50.284;18.860;2022-10-17T14:40:06;12.40;;;8.90;;
62056;SDS011;48016;50.284;18.860;2022-10-17T14:42:37;11.30;;;8.20;;
62056;SDS011;48016;50.284;18.860;2022-10-17T14:45:06;15.90;;;9.00;;
62056;SDS011;48016;50.284;18.860;2022-10-17T14:47:37;14.40;;;9.70;;
62056;SDS011;48016;50.284;18.860;2022-10-17T14:55:32;17.20;;;11.30;;
62056;SDS011;48016;50.284;18.860;2022-10-17T14:58:00;18.30;;;11.00;;
62056;SDS011;48016;50.284;18.860;2022-10-17T15:00:27;17.60;;;11.50;;
62056;SDS011;48016;50.284;18.860;2022-10-17T15:02:54;18.30;;;11.70;;
62056;SDS011;48016;50.284;18.860;2022-10-17T15:05:21;17.00;;;11.90;;
62056;SDS011;48016;50.284;18.860;2022-10-17T15:07:48;18.10;;;12.00;;
62056;SDS011;48016;50.284;18.860;2022-10-17T15:12:54;17.60;;;11.90;;
62056;SDS011;48016;50.284;18.860;2022-10-17T15:15:20;19.00;;;11.90;;
62056;SDS011;48016;50.284;18.860;2022-10-17T15:17:47;17.40;;;12.00;;
62056;SDS011;48016;50.284;18.860;2022-10-17T15:20:16;18.70;;;12.50;;
62056;SDS011;48016;50.284;18.860;2022-10-17T15:22:44;17.80;;;12.70;;
62056;SDS011;48016;50.284;18.860;2022-10-17T15:25:10;19.20;;;12.40;;
62056;SDS011;48016;50.284;18.860;2022-10-17T15:27:37;17.30;;;12.10;;
62056;SDS011;48016;50.284;18.860;2022-10-17T15:30:05;17.50;;;11.90;;
62056;SDS011;48016;50.284;18.860;2022-10-17T15:32:58;18.30;;;11.60;;
62056;SDS011;48016;50.284;18.860;2022-10-17T15:35:25;17.10;;;11.40;;
62056;SDS011;48016;50.284;18.860;2022-10-17T15:37:53;17.10;;;11.60;;
62056;SDS011;48016;50.284;18.860;2022-10-17T15:40:22;15.80;;;11.10;;
62056;SDS011;48016;50.284;18.860;2022-10-17T15:42:54;17.50;;;11.20;;
62056;SDS011;48016;50.284;18.860;2022-10-17T15:50:16;19.20;;;11.40;;
62056;SDS011;48016;50.284;18.860;2022-10-17T15:52:43;16.00;;;12.30;;
62056;SDS011;48016;50.284;18.860;2022-10-17T15:55:12;17.30;;;11.70;;
62056;SDS011;48016;50.284;18.860;2022-10-17T15:57:39;15.70;;;11.30;;
62056;SDS011;48016;50.284;18.860;2022-10-17T16:00:26;18.00;;;12.10;;
62056;SDS011;48016;50.284;18.860;2022-10-17T16:02:52;20.70;;;12.20;;
62056;SDS011;48016;50.284;18.860;2022-10-17T16:05:23;22.50;;;13.00;;
62056;SDS011;48016;50.284;18.860;2022-10-17T16:07:54;21.00;;;13.60;;
62056;SDS011;48016;50.284;18.860;2022-10-17T16:10:22;23.90;;;15.50;;
62056;SDS011;48016;50.284;18.860;2022-10-17T16:12:51;24.00;;;16.10;;
62056;SDS011;48016;50.284;18.860;2022-10-17T16:15:19;23.90;;;16.20;;
62056;SDS011;48016;50.284;18.860;2022-10-17T16:17:53;23.60;;;15.10;;
62056;SDS011;48016;50.284;18.860;2022-10-17T16:20:22;25.00;;;15.10;;
62056;SDS011;48016;50.284;18.860;2022-10-17T16:22:49;22.70;;;15.30;;
62056;SDS011;48016;50.284;18.860;2022-10-17T16:27:52;21.00;;;12.60;;
62056;SDS011;48016;50.284;18.860;2022-10-17T16:30:21;22.00;;;12.90;;
62056;SDS011;48016;50.284;18.860;2022-10-17T16:32:49;18.50;;;11.80;;
62056;SDS011;48016;50.284;18.860;2022-10-17T16:35:20;14.30;;;10.10;;
62056;SDS011;48016;50.284;18.860;2022-10-17T16:37:48;14.90;;;10.20;;
62056;SDS011;48016;50.284;18.860;2022-10-17T16:40:15;17.40;;;11.20;;
62056;SDS011;48016;50.284;18.860;2022-10-17T16:42:42;17.80;;;10.80;;